AirNav   Advertisement
 
 1010 users online  

0IS2 Northshore Glenbrook Hospital Heliport
Glenview, Illinois, USA

GOING TO GLENVIEW?


FAA INFORMATION EFFECTIVE 20 JULY 2017

Location

FAA Identifier: 0IS2
Lat/Long: 42-05-36.6900N / 087-51-10.0400W
42-05.611500N / 087-51.167333W
42.0935250 / -87.8527889
(estimated)
Elevation: 675 ft. / 206 m (estimated)
From city: 2 miles W of GLENVIEW, IL
Time zone: UTC -5 (UTC -6 during Standard Time)
Zip code: 60025

Heliport Operations

Heliport use: Private use. Permission required prior to landing
Activation date: 04/1982
Control tower: no
ARTCC: CHICAGO CENTER
FSS: KANKAKEE FLIGHT SERVICE STATION
Attendance: CONTINUOUS
Wind indicator: yes
Segmented circle: no
Lights: SS-SR

Heliport Communications

WX ASOS at PWK (2.5 nm NW): PHONE 847-465-0291
WX ASOS at ORD (7 nm S): PHONE 773-462-0118
WX AWOS-AV at 06C (13 nm SW): 128.275
WX ASOS at MDW (19 nm S): PHONE 773-884-4424
WX ASOS at UGN (20 nm N): PHONE 847-782-0876

Nearby radio navigation aids

VOR radial/distance  VOR name  Freq  Var
ORDr018/6.8CHICAGO O'HARE VOR/DME113.9002E
OBKr152/8.8NORTHBROOK VOR/DME113.0002W
DPAr059/25.3DUPAGE VOR/DME108.4002E
CGTr338/37.2CHICAGO HEIGHTS VORTAC114.2002E
JOTr030/38.9JOLIET VORTAC112.3002E

Heliport Services

Runway Information

Helipad H1

Dimensions: 60 x 60 ft. / 18 x 18 m
Surface: concrete
Runway edge lights: FLD
Latitude: 42-05.611500N
Longitude: 087-51.167333W
Elevation: 675.0 ft.
Traffic pattern: leftleft

Heliport Ownership and Management from official FAA records

Ownership: Privately-owned
Owner: NORTHSHORE UNIVERSITY HEALTHSYSTEM
2650 RIDGE AVE
EVANSTON, IL 60201
Phone 847-570-2000
Manager: SEAN O'GRADY
NORTHSHORE UNIV HEALTHSYS-GLENBROOK, 2100 PFINGSTEN RD
GLENVIEW, IL 60025
Phone 847-657-5600

Instrument Procedures

There are no published instrument procedures at 0IS2.

Some nearby airports with instrument procedures:

KPWK - Chicago Executive Airport (3 nm NW)
KORD - Chicago O'Hare International Airport (7 nm S)
C81 - Campbell Airport (17 nm NW)
KMDW - Chicago Midway International Airport (19 nm S)
KUGN - Waukegan Regional Airport (20 nm N)
 
Loc | Ops | Rwys | IFR | FBO | Links
Com | Nav | Svcs | Stats | Notes


 
Area around 0IS2 (Northshore Glenbrook Hospital Heliport)
 
Road maps at: MapQuest Bing Google
 
Aerial photo
No photo
 
Sectional chart

 
Airport distance calculator
Flying to Northshore Glenbrook Hospital Heliport? Find the distance to fly.

From to 0IS2

Sunrise and sunset
Times for 23-Jul-2017
 Local
(UTC-5)
 Zulu
(UTC)
Morning civil twilight05:0410:04
Sunrise05:3710:37
Sunset20:1901:19
Evening civil twilight20:5101:51

Current date and time
Zulu (UTC)  23-Jul-2017 21:20:53
Local (UTC-5)  23-Jul-2017 16:20:53
 
METAR
KPWK 
3nm NW 
232052Z AUTO 05005KT 10SM VCTS FEW065 FEW075 BKN100 24/22 A2978 RMK AO2 WSHFT 2007 LTG DSNT W AND NW RAB13E46 SLP078 P0003 60003 T02440217 56010 $
KORD 
8nm SW 
232051Z 26011G18KT 10SM FEW040 SCT065 BKN120 31/17 A2975 RMK AO2 LTG DSNT N AND NW SLP070 CB DSNT NW-N T03110167 58013
KMDW 
19nm S 
232053Z 29009G18KT 10SM SCT065 SCT120 BKN250 31/17 A2976 RMK AO2 LTG DSNT NW SLP065 CB DSNT NW-N T03110172 58010 $
KUGN 
19nm N 
232055Z 31003KT 10SM VCTS FEW055 BKN100 23/21 A2978 RMK AO2 LTG DSNT SW AND W RAB39E54 SLP074 P0000 60000 T02330206 56002 $
TAF
KORD 
8nm SW 
231736Z 2318/2424 32009KT P6SM SCT070 FM232000 31010KT P6SM VCTS SCT040 BKN070CB FM232300 02007KT P6SM SCT040 FM241200 02011KT P6SM BKN020 FM241800 03010KT P6SM SCT020
KMDW 
19nm S 
231906Z 2319/2418 29011KT P6SM SCT070 FM232000 32008KT P6SM VCTS SCT040 BKN070CB TEMPO 2321/2323 6SM -TSRA BKN040CB FM232300 01007KT P6SM SCT040 FM241200 02011KT P6SM BKN020
NOTAMs
Click for the latest NOTAMs
NOTAMs are issued by the DoD/FAA and will open in a separate window not controlled by AirNav.

 

 
 

Would you like to see your business listed on this page?

 If your business provides an interesting product or service to pilots, flight crews, aircraft, or users of the Northshore Glenbrook Hospital Heliport, you should consider listing it here.  To start the listing process, click on the button below
 
Add a business
 

Other Pages about Northshore Glenbrook Hospital Heliport

Update a link
 
Copyright © AirNav, LLC. All rights reserved. Privacy Policy  Contact